Mississippi Star — 9HA2441 — position and weather

sailwx.info

Track history (hours):
 
Tides and Currents Weather Stations Pressure Air Temp Water Temp Dewpoint Dewpoint Depression Visibility Wind Speed Wind Dir Waves Ship Positions

Mississippi Star

Last reported at 2014-Nov-22 20:33 UTC. Time now 2014-Nov-23 19:56 UTC.
Position N 49°28' E 000°32'.

Length 128 m; draft 6.1 m.

Type: Ship. MMSI: 248621000.

Date/timePositionNaut miles runAvg speedWind from/ knotsBaromVisibWave heightAir tempDewpointWater temp
2014-Nov-22 20:33N 49°28' E 000°32'1 1.0
2014-Nov-22 19:33N 49°29' E 000°31'1111.2
2014-Nov-22 18:33N 49°26' E 000°15'1211.5
2014-Nov-22 17:33N 49°28' W 000°03'4 3.4
2014-Nov-22 16:29N 49°29' W 000°08'0 0.0
2014-Nov-22 15:29N 49°29' W 000°08'0 0.0
2014-Nov-22 14:32N 49°29' W 000°08'0 0.0
2014-Nov-22 13:32N 49°29' W 000°08'0 0.1
2014-Nov-22 12:29N 49°29' W 000°08'0 0.0
2014-Nov-22 11:29N 49°29' W 000°08'0 0.0
2014-Nov-22 10:32N 49°29' W 000°08'0 0.0
2014-Nov-22 09:32N 49°29' W 000°08'0 0.0
2014-Nov-22 08:32N 49°29' W 000°08'0 0.0
2014-Nov-22 07:29N 49°29' W 000°08'0 0.0
2014-Nov-22 06:32N 49°29' W 000°08'0 0.1
2014-Nov-22 05:32N 49°29' W 000°08'0 0.0
2014-Nov-22 04:29N 49°29' W 000°08'0 0.0
2014-Nov-22 03:29N 49°29' W 000°08'0 0.0
2014-Nov-22 02:29N 49°29' W 000°08'0 0.0
2014-Nov-22 01:29N 49°29' W 000°08'0 0.0
2014-Nov-22 00:28N 49°29' W 000°08'0 0.0
2014-Nov-21 23:28N 49°29' W 000°08'0 0.0
2014-Nov-21 22:29N 49°29' W 000°08'0 0.0
2014-Nov-21 21:32N 49°29' W 000°08'0 0.0
2014-Nov-21 20:29N 49°29' W 000°08'0 0.0
2014-Nov-21 19:32N 49°29' W 000°08'0 0.1
2014-Nov-21 18:28N 49°29' W 000°08'0 0.1
2014-Nov-21 17:28N 49°29' W 000°08'0 0.0
2014-Nov-21 16:31N 49°29' W 000°08'0 0.0
2014-Nov-21 15:31N 49°29' W 000°08'0 0.0
2014-Nov-21 14:31N 49°29' W 000°08'0 0.0
2014-Nov-21 13:28N 49°29' W 000°08'0 0.0
2014-Nov-21 12:32N 49°29' W 000°08'0 0.0
2014-Nov-21 11:32N 49°29' W 000°08'0 0.0
2014-Nov-21 10:32N 49°29' W 000°08'0 0.0
2014-Nov-21 09:31N 49°29' W 000°08'0 0.1
2014-Nov-21 08:28N 49°29' W 000°08'0 0.0
2014-Nov-21 07:28N 49°29' W 000°08'0 0.0
2014-Nov-21 06:29N 49°29' W 000°08'0 0.0
2014-Nov-21 05:31N 49°29' W 000°08'3 3.0
2014-Nov-21 04:34N 49°30' W 000°12'1111.2
2014-Nov-21 03:33N 49°37' W 000°25'55 8.9
2014-Nov-20 21:21N 50°29' E 000°04'911.5
2014-Nov-20 20:33N 50°31' E 000°18'1110.7
2014-Nov-20 19:33N 50°36' E 000°33'1111.2
2014-Nov-20 18:33N 50°42' E 000°48'1212.4
2014-Nov-20 17:33N 50°49' E 001°05'1414.1
2014-Nov-20 16:33N 50°60' E 001°20'1414.0
2014-Nov-20 15:33N 51°09' E 001°37'1212.4
2014-Nov-20 14:34N 51°18' E 001°49'1111.3
2014-Nov-20 13:33N 51°28' E 001°58'1110.8
2014-Nov-20 12:33N 51°37' E 002°09'8511.9
2014-Nov-20 05:26N 52°31' E 003°54'1112.2
2014-Nov-20 04:33N 52°31' E 004°11'1211.8
2014-Nov-20 03:34N 52°28' E 004°30'4 4.3
2014-Nov-20 02:34N 52°28' E 004°37'5 5.3
2014-Nov-20 01:34N 52°26' E 004°45'2 1.8
2014-Nov-20 00:31N 52°24' E 004°47'0 0.0
2014-Nov-19 23:31N 52°24' E 004°47'0 0.0
2014-Nov-19 22:31N 52°24' E 004°47'0 0.0
2014-Nov-19 21:31N 52°24' E 004°47'0 0.0
2014-Nov-19 20:31N 52°24' E 004°47'0 0.0
2014-Nov-19 19:31N 52°24' E 004°47'0 0.0
2014-Nov-19 18:31N 52°24' E 004°47'0 0.0
2014-Nov-19 17:31N 52°24' E 004°47'0 0.0
2014-Nov-19 16:28N 52°24' E 004°47'0 0.0
2014-Nov-19 15:31N 52°24' E 004°47'0 0.0
2014-Nov-19 14:31N 52°24' E 004°47'0 0.0
2014-Nov-19 13:31N 52°24' E 004°47'0 0.0
2014-Nov-19 12:31N 52°24' E 004°47'0 0.0
2014-Nov-19 11:28N 52°24' E 004°47'0 0.0
2014-Nov-19 10:31N 52°24' E 004°47'0 0.0
2014-Nov-19 09:31N 52°24' E 004°47'0 0.0
2014-Nov-19 08:31N 52°24' E 004°47'0 0.0
2014-Nov-19 07:31N 52°24' E 004°47'0 0.0
2014-Nov-19 06:28N 52°24' E 004°47'0 0.0
2014-Nov-19 05:31N 52°24' E 004°47'0 0.0
2014-Nov-19 04:31N 52°24' E 004°47'0 0.0
2014-Nov-19 03:31N 52°24' E 004°47'0 0.0
2014-Nov-19 02:31N 52°24' E 004°47'0 0.0
2014-Nov-19 01:31N 52°24' E 004°47'0 0.5
2014-Nov-19 00:33N 52°25' E 004°47'7 7.1
2014-Nov-18 23:33N 52°28' E 004°36'3 3.0
2014-Nov-18 22:33N 52°28' E 004°31'7 6.6
2014-Nov-18 21:33N 52°28' E 004°21'10 9.8
2014-Nov-18 20:34N 52°28' E 004°04'3 2.6
2014-Nov-18 19:28N 52°26' E 004°00'0 0.0
2014-Nov-18 18:31N 52°26' E 004°00'0 0.0
2014-Nov-18 17:31N 52°26' E 004°00'0 0.0
2014-Nov-18 16:31N 52°26' E 004°00'0 0.0
2014-Nov-18 15:28N 52°26' E 004°00'0 0.0
2014-Nov-18 14:31N 52°26' E 004°00'0 0.1
2014-Nov-18 13:31N 52°27' E 004°01'0 0.0
2014-Nov-18 12:28N 52°27' E 004°01'0 0.0
2014-Nov-18 11:31N 52°27' E 004°01'0 0.1
2014-Nov-18 10:31N 52°27' E 004°00'0 0.1
2014-Nov-18 09:28N 52°26' E 004°00'0 0.0
2014-Nov-18 08:31N 52°26' E 004°00'0 0.0
2014-Nov-18 07:28N 52°26' E 004°00'0 0.0
2014-Nov-18 06:28N 52°26' E 004°00'0 0.0
2014-Nov-18 05:31N 52°26' E 004°00'0 0.0
2014-Nov-18 04:31N 52°26' E 004°00'0 0.0
2014-Nov-18 03:31N 52°26' E 004°00'0 0.0
2014-Nov-18 02:31N 52°26' E 004°00'0 0.1
2014-Nov-18 01:28N 52°27' E 004°01'0 0.0
2014-Nov-18 00:31N 52°27' E 004°01'2 1.9
2014-Nov-17 23:34N 52°27' E 003°58'104 7.7
2014-Nov-17 10:06N 54°05' E 004°55'712.1
2014-Nov-17 09:34N 54°06' E 005°06'1212.1
2014-Nov-17 08:33N 54°07' E 005°27'1211.9
2014-Nov-17 07:32N 54°09' E 005°47'4511.2
2014-Nov-17 03:33N 54°12' E 007°03'1110.6
2014-Nov-17 02:33N 54°12' E 007°21'1010.5
2014-Nov-17 01:34N 54°10' E 007°39'1211.6
2014-Nov-17 00:33N 54°04' E 007°56'1211.6
2014-Nov-16 23:34N 54°00' E 008°15'1414.2
2014-Nov-16 22:34N 53°57' E 008°38'1312.7
2014-Nov-16 21:33N 53°51' E 008°57'8 7.5
2014-Nov-16 20:33N 53°54' E 009°09'3 2.8
2014-Nov-16 19:33N 53°56' E 009°12'8 7.6
2014-Nov-16 18:29N 54°03' E 009°18'15 4.7
2014-Nov-16 15:15N 54°14' E 009°36'5 6.4
2014-Nov-16 14:31N 54°18' E 009°41'7 7.6
2014-Nov-16 13:33N 54°22' E 009°51'8 7.8
2014-Nov-16 12:33N 54°22' E 010°04'3 2.6
2014-Nov-16 11:33N 54°22' E 010°09'6 5.9
2014-Nov-16 10:33N 54°27' E 010°14'1110.8
2014-Nov-16 09:31N 54°33' E 010°30'3712.3
2014-Nov-16 06:29N 54°29' E 011°34'1111.9
2014-Nov-16 05:33N 54°26' E 011°52'1110.9
2014-Nov-16 04:33N 54°29' E 012°10'8810.7
2014-Nov-15 20:19N 54°39' E 014°42'911.9
2014-Nov-15 19:32N 54°40' E 014°58'10812.1
2014-Nov-15 10:33N 54°58' E 018°03'1212.3
2014-Nov-15 09:33N 54°60' E 018°24'1211.9
2014-Nov-15 08:33N 54°54' E 018°43'1312.9
2014-Nov-15 07:34N 54°45' E 018°58'1111.2
2014-Nov-15 06:33N 54°34' E 019°05'1111.1
2014-Nov-15 05:33N 54°26' E 018°53'6 5.9
2014-Nov-15 04:31N 54°24' E 018°43'0 0.0
2014-Nov-15 03:31N 54°24' E 018°43'0 0.0
2014-Nov-15 02:31N 54°24' E 018°43'0 0.0
2014-Nov-15 01:31N 54°24' E 018°43'0 0.0
2014-Nov-15 00:31N 54°24' E 018°43'0 0.0
2014-Nov-14 23:31N 54°24' E 018°43'0 0.0
2014-Nov-14 22:31N 54°24' E 018°43'0 0.0
2014-Nov-14 21:31N 54°24' E 018°43'0 0.0
2014-Nov-14 20:31N 54°24' E 018°43'0 0.0
2014-Nov-14 19:31N 54°24' E 018°43'0 0.0
2014-Nov-14 18:31N 54°24' E 018°43'0 0.0
2014-Nov-14 17:31N 54°24' E 018°43'0 0.0
2014-Nov-14 16:31N 54°24' E 018°43'0 0.0
2014-Nov-14 15:31N 54°24' E 018°43'0 0.0
2014-Nov-14 14:31N 54°24' E 018°43'0 0.0
2014-Nov-14 12:31N 54°24' E 018°43'0 0.0
2014-Nov-14 11:31N 54°24' E 018°43'0 0.0
2014-Nov-14 10:31N 54°24' E 018°43'0 0.0
2014-Nov-14 09:31N 54°24' E 018°43'0 0.0
2014-Nov-14 08:31N 54°24' E 018°43'0 0.0
2014-Nov-14 07:31N 54°24' E 018°43'0 0.0
2014-Nov-14 06:31N 54°24' E 018°43'0 0.0
2014-Nov-14 05:31N 54°24' E 018°43'0 0.0
2014-Nov-14 04:33N 54°24' E 018°43'5 4.8
2014-Nov-14 03:34N 54°27' E 018°50'2 1.9
2014-Nov-14 02:33N 54°28' E 018°53'0 0.0
2014-Nov-14 01:33N 54°28' E 018°53'0 0.0
2014-Nov-14 00:33N 54°28' E 018°53'0 0.0
2014-Nov-13 23:33N 54°28' E 018°53'0 0.0
2014-Nov-13 22:33N 54°28' E 018°53'0 0.0
2014-Nov-13 21:33N 54°28' E 018°53'0 0.0
2014-Nov-13 20:33N 54°28' E 018°53'0 0.0
2014-Nov-13 19:33N 54°28' E 018°53'0 0.0
2014-Nov-13 18:33N 54°28' E 018°53'0 0.0
2014-Nov-13 17:33N 54°28' E 018°53'0 0.0
2014-Nov-13 16:33N 54°28' E 018°53'0 0.0
2014-Nov-13 15:33N 54°28' E 018°53'0 0.0
2014-Nov-13 14:33N 54°28' E 018°53'0 0.0
2014-Nov-13 13:33N 54°28' E 018°53'0 0.0
2014-Nov-13 12:33N 54°28' E 018°53'0 0.0
2014-Nov-13 11:33N 54°28' E 018°53'0 0.0
2014-Nov-13 10:33N 54°28' E 018°53'0 0.0
2014-Nov-13 09:33N 54°28' E 018°53'0 0.0
2014-Nov-13 08:33N 54°28' E 018°53'0 0.0
2014-Nov-13 07:33N 54°28' E 018°53'0 0.0
2014-Nov-13 06:33N 54°28' E 018°53'0 0.0
2014-Nov-13 05:33N 54°28' E 018°53'0 0.0
2014-Nov-13 04:33N 54°28' E 018°53'0 0.0
2014-Nov-13 03:33N 54°28' E 018°53'0 0.0
2014-Nov-13 02:33N 54°28' E 018°53'0 0.0
2014-Nov-13 01:33N 54°28' E 018°53'0 0.0
2014-Nov-13 00:33N 54°28' E 018°53'0 0.0
2014-Nov-12 23:33N 54°28' E 018°53'0 0.0
2014-Nov-12 22:33N 54°28' E 018°53'0 0.0
2014-Nov-12 21:33N 54°28' E 018°53'  
Track history (hours):
 
Tides and Currents Weather Stations Pressure Air Temp Water Temp Dewpoint Dewpoint Depression Visibility Wind Speed Wind Dir Waves Ship Positions

Mississippi Star

Last reported at 2014-Nov-22 20:33 UTC. Time now 2014-Nov-23 19:56 UTC.
Position N 49°28' E 000°32'.

Length 128 m; draft 6.1 m.

Type: Ship. MMSI: 248621000.

Date/timePositionNaut miles runAvg speedWind from/ knotsBaromVisibWave heightAir tempDewpointWater temp
2014-Nov-22 20:33N 49°28' E 000°32'1 1.0
2014-Nov-22 19:33N 49°29' E 000°31'1111.2
2014-Nov-22 18:33N 49°26' E 000°15'1211.5
2014-Nov-22 17:33N 49°28' W 000°03'4 3.4
2014-Nov-22 16:29N 49°29' W 000°08'0 0.0
2014-Nov-22 15:29N 49°29' W 000°08'0 0.0
2014-Nov-22 14:32N 49°29' W 000°08'0 0.0
2014-Nov-22 13:32N 49°29' W 000°08'0 0.1
2014-Nov-22 12:29N 49°29' W 000°08'0 0.0
2014-Nov-22 11:29N 49°29' W 000°08'0 0.0
2014-Nov-22 10:32N 49°29' W 000°08'0 0.0
2014-Nov-22 09:32N 49°29' W 000°08'0 0.0
2014-Nov-22 08:32N 49°29' W 000°08'0 0.0
2014-Nov-22 07:29N 49°29' W 000°08'0 0.0
2014-Nov-22 06:32N 49°29' W 000°08'0 0.1
2014-Nov-22 05:32N 49°29' W 000°08'0 0.0
2014-Nov-22 04:29N 49°29' W 000°08'0 0.0
2014-Nov-22 03:29N 49°29' W 000°08'0 0.0
2014-Nov-22 02:29N 49°29' W 000°08'0 0.0
2014-Nov-22 01:29N 49°29' W 000°08'0 0.0
2014-Nov-22 00:28N 49°29' W 000°08'0 0.0
2014-Nov-21 23:28N 49°29' W 000°08'0 0.0
2014-Nov-21 22:29N 49°29' W 000°08'0 0.0
2014-Nov-21 21:32N 49°29' W 000°08'0 0.0
2014-Nov-21 20:29N 49°29' W 000°08'0 0.0
2014-Nov-21 19:32N 49°29' W 000°08'0 0.1
2014-Nov-21 18:28N 49°29' W 000°08'0 0.1
2014-Nov-21 17:28N 49°29' W 000°08'0 0.0
2014-Nov-21 16:31N 49°29' W 000°08'0 0.0
2014-Nov-21 15:31N 49°29' W 000°08'0 0.0
2014-Nov-21 14:31N 49°29' W 000°08'0 0.0
2014-Nov-21 13:28N 49°29' W 000°08'0 0.0
2014-Nov-21 12:32N 49°29' W 000°08'0 0.0
2014-Nov-21 11:32N 49°29' W 000°08'0 0.0
2014-Nov-21 10:32N 49°29' W 000°08'0 0.0
2014-Nov-21 09:31N 49°29' W 000°08'0 0.1
2014-Nov-21 08:28N 49°29' W 000°08'0 0.0
2014-Nov-21 07:28N 49°29' W 000°08'0 0.0
2014-Nov-21 06:29N 49°29' W 000°08'0 0.0
2014-Nov-21 05:31N 49°29' W 000°08'3 3.0
2014-Nov-21 04:34N 49°30' W 000°12'1111.2
2014-Nov-21 03:33N 49°37' W 000°25'55 8.9
2014-Nov-20 21:21N 50°29' E 000°04'911.5
2014-Nov-20 20:33N 50°31' E 000°18'1110.7
2014-Nov-20 19:33N 50°36' E 000°33'1111.2
2014-Nov-20 18:33N 50°42' E 000°48'1212.4
2014-Nov-20 17:33N 50°49' E 001°05'1414.1
2014-Nov-20 16:33N 50°60' E 001°20'1414.0
2014-Nov-20 15:33N 51°09' E 001°37'1212.4
2014-Nov-20 14:34N 51°18' E 001°49'1111.3
2014-Nov-20 13:33N 51°28' E 001°58'1110.8
2014-Nov-20 12:33N 51°37' E 002°09'8511.9
2014-Nov-20 05:26N 52°31' E 003°54'1112.2
2014-Nov-20 04:33N 52°31' E 004°11'1211.8
2014-Nov-20 03:34N 52°28' E 004°30'4 4.3
2014-Nov-20 02:34N 52°28' E 004°37'5 5.3
2014-Nov-20 01:34N 52°26' E 004°45'2 1.8
2014-Nov-20 00:31N 52°24' E 004°47'0 0.0
2014-Nov-19 23:31N 52°24' E 004°47'0 0.0
2014-Nov-19 22:31N 52°24' E 004°47'0 0.0
2014-Nov-19 21:31N 52°24' E 004°47'0 0.0
2014-Nov-19 20:31N 52°24' E 004°47'0 0.0
2014-Nov-19 19:31N 52°24' E 004°47'0 0.0
2014-Nov-19 18:31N 52°24' E 004°47'0 0.0
2014-Nov-19 17:31N 52°24' E 004°47'0 0.0
2014-Nov-19 16:28N 52°24' E 004°47'0 0.0
2014-Nov-19 15:31N 52°24' E 004°47'0 0.0
2014-Nov-19 14:31N 52°24' E 004°47'0 0.0
2014-Nov-19 13:31N 52°24' E 004°47'0 0.0
2014-Nov-19 12:31N 52°24' E 004°47'0 0.0
2014-Nov-19 11:28N 52°24' E 004°47'0 0.0
2014-Nov-19 10:31N 52°24' E 004°47'0 0.0
2014-Nov-19 09:31N 52°24' E 004°47'0 0.0
2014-Nov-19 08:31N 52°24' E 004°47'0 0.0
2014-Nov-19 07:31N 52°24' E 004°47'0 0.0
2014-Nov-19 06:28N 52°24' E 004°47'0 0.0
2014-Nov-19 05:31N 52°24' E 004°47'0 0.0
2014-Nov-19 04:31N 52°24' E 004°47'0 0.0
2014-Nov-19 03:31N 52°24' E 004°47'0 0.0
2014-Nov-19 02:31N 52°24' E 004°47'0 0.0
2014-Nov-19 01:31N 52°24' E 004°47'0 0.5
2014-Nov-19 00:33N 52°25' E 004°47'7 7.1
2014-Nov-18 23:33N 52°28' E 004°36'3 3.0
2014-Nov-18 22:33N 52°28' E 004°31'7 6.6
2014-Nov-18 21:33N 52°28' E 004°21'10 9.8
2014-Nov-18 20:34N 52°28' E 004°04'3 2.6
2014-Nov-18 19:28N 52°26' E 004°00'0 0.0
2014-Nov-18 18:31N 52°26' E 004°00'0 0.0
2014-Nov-18 17:31N 52°26' E 004°00'0 0.0
2014-Nov-18 16:31N 52°26' E 004°00'0 0.0
2014-Nov-18 15:28N 52°26' E 004°00'0 0.0
2014-Nov-18 14:31N 52°26' E 004°00'0 0.1
2014-Nov-18 13:31N 52°27' E 004°01'0 0.0
2014-Nov-18 12:28N 52°27' E 004°01'0 0.0
2014-Nov-18 11:31N 52°27' E 004°01'0 0.1
2014-Nov-18 10:31N 52°27' E 004°00'0 0.1
2014-Nov-18 09:28N 52°26' E 004°00'0 0.0
2014-Nov-18 08:31N 52°26' E 004°00'0 0.0
2014-Nov-18 07:28N 52°26' E 004°00'0 0.0
2014-Nov-18 06:28N 52°26' E 004°00'0 0.0
2014-Nov-18 05:31N 52°26' E 004°00'0 0.0
2014-Nov-18 04:31N 52°26' E 004°00'0 0.0
2014-Nov-18 03:31N 52°26' E 004°00'0 0.0
2014-Nov-18 02:31N 52°26' E 004°00'0 0.1
2014-Nov-18 01:28N 52°27' E 004°01'0 0.0
2014-Nov-18 00:31N 52°27' E 004°01'2 1.9
2014-Nov-17 23:34N 52°27' E 003°58'104 7.7
2014-Nov-17 10:06N 54°05' E 004°55'712.1
2014-Nov-17 09:34N 54°06' E 005°06'1212.1
2014-Nov-17 08:33N 54°07' E 005°27'1211.9
2014-Nov-17 07:32N 54°09' E 005°47'4511.2
2014-Nov-17 03:33N 54°12' E 007°03'1110.6
2014-Nov-17 02:33N 54°12' E 007°21'1010.5
2014-Nov-17 01:34N 54°10' E 007°39'1211.6
2014-Nov-17 00:33N 54°04' E 007°56'1211.6
2014-Nov-16 23:34N 54°00' E 008°15'1414.2
2014-Nov-16 22:34N 53°57' E 008°38'1312.7
2014-Nov-16 21:33N 53°51' E 008°57'8 7.5
2014-Nov-16 20:33N 53°54' E 009°09'3 2.8
2014-Nov-16 19:33N 53°56' E 009°12'8 7.6
2014-Nov-16 18:29N 54°03' E 009°18'15 4.7
2014-Nov-16 15:15N 54°14' E 009°36'5 6.4
2014-Nov-16 14:31N 54°18' E 009°41'7 7.6
2014-Nov-16 13:33N 54°22' E 009°51'8 7.8
2014-Nov-16 12:33N 54°22' E 010°04'3 2.6
2014-Nov-16 11:33N 54°22' E 010°09'6 5.9
2014-Nov-16 10:33N 54°27' E 010°14'1110.8
2014-Nov-16 09:31N 54°33' E 010°30'3712.3
2014-Nov-16 06:29N 54°29' E 011°34'1111.9
2014-Nov-16 05:33N 54°26' E 011°52'1110.9
2014-Nov-16 04:33N 54°29' E 012°10'8810.7
2014-Nov-15 20:19N 54°39' E 014°42'911.9
2014-Nov-15 19:32N 54°40' E 014°58'10812.1
2014-Nov-15 10:33N 54°58' E 018°03'1212.3
2014-Nov-15 09:33N 54°60' E 018°24'1211.9
2014-Nov-15 08:33N 54°54' E 018°43'1312.9
2014-Nov-15 07:34N 54°45' E 018°58'1111.2
2014-Nov-15 06:33N 54°34' E 019°05'1111.1
2014-Nov-15 05:33N 54°26' E 018°53'6 5.9
2014-Nov-15 04:31N 54°24' E 018°43'0 0.0
2014-Nov-15 03:31N 54°24' E 018°43'0 0.0
2014-Nov-15 02:31N 54°24' E 018°43'0 0.0
2014-Nov-15 01:31N 54°24' E 018°43'0 0.0
2014-Nov-15 00:31N 54°24' E 018°43'0 0.0
2014-Nov-14 23:31N 54°24' E 018°43'0 0.0
2014-Nov-14 22:31N 54°24' E 018°43'0 0.0
2014-Nov-14 21:31N 54°24' E 018°43'0 0.0
2014-Nov-14 20:31N 54°24' E 018°43'0 0.0
2014-Nov-14 19:31N 54°24' E 018°43'0 0.0
2014-Nov-14 18:31N 54°24' E 018°43'0 0.0
2014-Nov-14 17:31N 54°24' E 018°43'0 0.0
2014-Nov-14 16:31N 54°24' E 018°43'0 0.0
2014-Nov-14 15:31N 54°24' E 018°43'0 0.0
2014-Nov-14 14:31N 54°24' E 018°43'0 0.0
2014-Nov-14 12:31N 54°24' E 018°43'0 0.0
2014-Nov-14 11:31N 54°24' E 018°43'0 0.0
2014-Nov-14 10:31N 54°24' E 018°43'0 0.0
2014-Nov-14 09:31N 54°24' E 018°43'0 0.0
2014-Nov-14 08:31N 54°24' E 018°43'0 0.0
2014-Nov-14 07:31N 54°24' E 018°43'0 0.0
2014-Nov-14 06:31N 54°24' E 018°43'0 0.0
2014-Nov-14 05:31N 54°24' E 018°43'0 0.0
2014-Nov-14 04:33N 54°24' E 018°43'5 4.8
2014-Nov-14 03:34N 54°27' E 018°50'2 1.9
2014-Nov-14 02:33N 54°28' E 018°53'0 0.0
2014-Nov-14 01:33N 54°28' E 018°53'0 0.0
2014-Nov-14 00:33N 54°28' E 018°53'0 0.0
2014-Nov-13 23:33N 54°28' E 018°53'0 0.0
2014-Nov-13 22:33N 54°28' E 018°53'0 0.0
2014-Nov-13 21:33N 54°28' E 018°53'0 0.0
2014-Nov-13 20:33N 54°28' E 018°53'0 0.0
2014-Nov-13 19:33N 54°28' E 018°53'0 0.0
2014-Nov-13 18:33N 54°28' E 018°53'0 0.0
2014-Nov-13 17:33N 54°28' E 018°53'0 0.0
2014-Nov-13 16:33N 54°28' E 018°53'0 0.0
2014-Nov-13 15:33N 54°28' E 018°53'0 0.0
2014-Nov-13 14:33N 54°28' E 018°53'0 0.0
2014-Nov-13 13:33N 54°28' E 018°53'0 0.0
2014-Nov-13 12:33N 54°28' E 018°53'0 0.0
2014-Nov-13 11:33N 54°28' E 018°53'0 0.0
2014-Nov-13 10:33N 54°28' E 018°53'0 0.0
2014-Nov-13 09:33N 54°28' E 018°53'0 0.0
2014-Nov-13 08:33N 54°28' E 018°53'0 0.0
2014-Nov-13 07:33N 54°28' E 018°53'0 0.0
2014-Nov-13 06:33N 54°28' E 018°53'0 0.0
2014-Nov-13 05:33N 54°28' E 018°53'0 0.0
2014-Nov-13 04:33N 54°28' E 018°53'0 0.0
2014-Nov-13 03:33N 54°28' E 018°53'0 0.0
2014-Nov-13 02:33N 54°28' E 018°53'0 0.0
2014-Nov-13 01:33N 54°28' E 018°53'0 0.0
2014-Nov-13 00:33N 54°28' E 018°53'0 0.0
2014-Nov-12 23:33N 54°28' E 018°53'0 0.0
2014-Nov-12 22:33N 54°28' E 018°53'0 0.0
2014-Nov-12 21:33N 54°28' E 018°53'  

Dump ship's entire track history